sensor_id;sensor_type;location;lat;lon;timestamp;P1;durP1;ratioP1;P2;durP2;ratioP2
13327;SDS011;6733;51.044;3.746;2022-11-23T00:01:22;8.17;;;3.10;;
13327;SDS011;6733;51.044;3.746;2022-11-23T00:03:50;6.67;;;3.33;;
13327;SDS011;6733;51.044;3.746;2022-11-23T00:06:19;6.67;;;3.00;;
13327;SDS011;6733;51.044;3.746;2022-11-23T00:08:48;6.00;;;3.27;;
13327;SDS011;6733;51.044;3.746;2022-11-23T00:11:15;8.47;;;3.33;;
13327;SDS011;6733;51.044;3.746;2022-11-23T00:13:42;8.10;;;3.83;;
13327;SDS011;6733;51.044;3.746;2022-11-23T00:16:11;6.17;;;3.50;;
13327;SDS011;6733;51.044;3.746;2022-11-23T00:18:42;6.63;;;3.17;;
13327;SDS011;6733;51.044;3.746;2022-11-23T00:21:10;8.80;;;3.40;;
13327;SDS011;6733;51.044;3.746;2022-11-23T00:23:38;10.27;;;3.53;;
13327;SDS011;6733;51.044;3.746;2022-11-23T00:26:04;7.90;;;3.53;;
13327;SDS011;6733;51.044;3.746;2022-11-23T00:28:31;10.20;;;3.70;;
13327;SDS011;6733;51.044;3.746;2022-11-23T00:30:57;11.33;;;3.93;;
13327;SDS011;6733;51.044;3.746;2022-11-23T00:33:23;10.57;;;3.53;;
13327;SDS011;6733;51.044;3.746;2022-11-23T00:36:00;8.83;;;3.83;;
13327;SDS011;6733;51.044;3.746;2022-11-23T00:38:27;13.63;;;4.00;;
13327;SDS011;6733;51.044;3.746;2022-11-23T00:41:00;9.43;;;3.53;;
13327;SDS011;6733;51.044;3.746;2022-11-23T00:43:28;12.63;;;3.93;;
13327;SDS011;6733;51.044;3.746;2022-11-23T00:46:05;12.87;;;3.70;;
13327;SDS011;6733;51.044;3.746;2022-11-23T00:48:32;11.77;;;3.60;;
13327;SDS011;6733;51.044;3.746;2022-11-23T00:51:00;11.53;;;4.10;;
13327;SDS011;6733;51.044;3.746;2022-11-23T00:53:27;9.90;;;4.27;;
13327;SDS011;6733;51.044;3.746;2022-11-23T00:55:54;9.77;;;4.47;;
13327;SDS011;6733;51.044;3.746;2022-11-23T00:58:20;9.90;;;3.80;;
13327;SDS011;6733;51.044;3.746;2022-11-23T01:00:47;9.23;;;3.87;;
13327;SDS011;6733;51.044;3.746;2022-11-23T01:03:13;12.80;;;3.50;;
13327;SDS011;6733;51.044;3.746;2022-11-23T01:05:40;10.17;;;3.33;;
13327;SDS011;6733;51.044;3.746;2022-11-23T01:08:07;12.53;;;3.97;;
13327;SDS011;6733;51.044;3.746;2022-11-23T01:10:33;18.23;;;3.83;;
13327;SDS011;6733;51.044;3.746;2022-11-23T01:12:59;10.97;;;3.40;;
13327;SDS011;6733;51.044;3.746;2022-11-23T01:15:25;14.03;;;4.07;;
13327;SDS011;6733;51.044;3.746;2022-11-23T01:17:52;8.47;;;3.60;;
13327;SDS011;6733;51.044;3.746;2022-11-23T01:20:18;9.73;;;3.87;;
13327;SDS011;6733;51.044;3.746;2022-11-23T01:22:44;16.07;;;4.00;;
13327;SDS011;6733;51.044;3.746;2022-11-23T01:25:10;12.67;;;3.80;;
13327;SDS011;6733;51.044;3.746;2022-11-23T01:27:36;9.00;;;3.70;;
13327;SDS011;6733;51.044;3.746;2022-11-23T01:30:02;11.73;;;3.53;;
13327;SDS011;6733;51.044;3.746;2022-11-23T01:32:29;14.07;;;3.93;;
13327;SDS011;6733;51.044;3.746;2022-11-23T01:34:55;11.67;;;3.80;;
13327;SDS011;6733;51.044;3.746;2022-11-23T01:37:21;10.90;;;3.27;;
13327;SDS011;6733;51.044;3.746;2022-11-23T01:39:47;9.07;;;3.97;;
13327;SDS011;6733;51.044;3.746;2022-11-23T01:42:13;9.30;;;3.70;;
13327;SDS011;6733;51.044;3.746;2022-11-23T01:44:40;8.77;;;3.47;;
13327;SDS011;6733;51.044;3.746;2022-11-23T01:47:07;8.50;;;3.23;;
13327;SDS011;6733;51.044;3.746;2022-11-23T01:49:35;10.73;;;3.57;;
13327;SDS011;6733;51.044;3.746;2022-11-23T01:52:17;12.40;;;3.60;;
13327;SDS011;6733;51.044;3.746;2022-11-23T01:54:47;11.57;;;4.33;;
13327;SDS011;6733;51.044;3.746;2022-11-23T01:57:19;9.07;;;3.67;;
13327;SDS011;6733;51.044;3.746;2022-11-23T01:59:48;15.50;;;3.50;;
13327;SDS011;6733;51.044;3.746;2022-11-23T02:02:15;12.73;;;3.93;;
13327;SDS011;6733;51.044;3.746;2022-11-23T02:04:42;10.73;;;3.30;;
13327;SDS011;6733;51.044;3.746;2022-11-23T02:07:12;12.57;;;3.37;;
13327;SDS011;6733;51.044;3.746;2022-11-23T02:09:39;11.10;;;3.77;;
13327;SDS011;6733;51.044;3.746;2022-11-23T02:12:10;11.47;;;3.70;;
13327;SDS011;6733;51.044;3.746;2022-11-23T02:14:38;14.67;;;3.70;;
13327;SDS011;6733;51.044;3.746;2022-11-23T02:17:05;15.97;;;3.10;;
13327;SDS011;6733;51.044;3.746;2022-11-23T02:22:11;8.97;;;3.60;;
13327;SDS011;6733;51.044;3.746;2022-11-23T02:24:46;12.80;;;3.20;;
13327;SDS011;6733;51.044;3.746;2022-11-23T02:27:16;11.60;;;3.40;;
13327;SDS011;6733;51.044;3.746;2022-11-23T02:29:42;13.83;;;3.90;;
13327;SDS011;6733;51.044;3.746;2022-11-23T02:32:09;8.90;;;3.43;;
13327;SDS011;6733;51.044;3.746;2022-11-23T02:34:35;10.43;;;3.50;;
13327;SDS011;6733;51.044;3.746;2022-11-23T02:37:01;11.90;;;3.63;;
13327;SDS011;6733;51.044;3.746;2022-11-23T02:39:35;13.60;;;3.53;;
13327;SDS011;6733;51.044;3.746;2022-11-23T02:42:05;9.73;;;3.00;;
13327;SDS011;6733;51.044;3.746;2022-11-23T02:47:20;11.10;;;3.37;;
13327;SDS011;6733;51.044;3.746;2022-11-23T02:49:47;12.97;;;3.47;;
13327;SDS011;6733;51.044;3.746;2022-11-23T02:52:14;10.77;;;3.07;;
13327;SDS011;6733;51.044;3.746;2022-11-23T02:54:41;12.90;;;4.00;;
13327;SDS011;6733;51.044;3.746;2022-11-23T02:57:07;14.83;;;3.60;;
13327;SDS011;6733;51.044;3.746;2022-11-23T02:59:34;7.53;;;3.17;;
13327;SDS011;6733;51.044;3.746;2022-11-23T03:02:01;9.33;;;2.93;;
13327;SDS011;6733;51.044;3.746;2022-11-23T03:04:28;11.93;;;3.80;;
13327;SDS011;6733;51.044;3.746;2022-11-23T03:06:54;8.07;;;3.40;;
13327;SDS011;6733;51.044;3.746;2022-11-23T03:09:21;12.53;;;4.10;;
13327;SDS011;6733;51.044;3.746;2022-11-23T03:11:51;11.87;;;3.57;;
13327;SDS011;6733;51.044;3.746;2022-11-23T03:14:17;13.33;;;3.80;;
13327;SDS011;6733;51.044;3.746;2022-11-23T03:16:43;14.00;;;3.53;;
13327;SDS011;6733;51.044;3.746;2022-11-23T03:19:10;13.17;;;4.43;;
13327;SDS011;6733;51.044;3.746;2022-11-23T03:21:36;14.10;;;3.63;;
13327;SDS011;6733;51.044;3.746;2022-11-23T03:24:02;17.30;;;4.00;;
13327;SDS011;6733;51.044;3.746;2022-11-23T03:26:28;13.10;;;3.90;;
13327;SDS011;6733;51.044;3.746;2022-11-23T03:28:55;12.03;;;3.30;;
13327;SDS011;6733;51.044;3.746;2022-11-23T03:31:21;10.67;;;3.10;;
13327;SDS011;6733;51.044;3.746;2022-11-23T03:33:47;12.57;;;3.30;;
13327;SDS011;6733;51.044;3.746;2022-11-23T03:36:13;11.27;;;3.07;;
13327;SDS011;6733;51.044;3.746;2022-11-23T03:38:39;9.60;;;3.30;;
13327;SDS011;6733;51.044;3.746;2022-11-23T03:41:05;15.33;;;3.83;;
13327;SDS011;6733;51.044;3.746;2022-11-23T03:43:31;9.73;;;2.90;;
13327;SDS011;6733;51.044;3.746;2022-11-23T03:45:57;12.40;;;3.23;;
13327;SDS011;6733;51.044;3.746;2022-11-23T03:48:23;12.93;;;3.50;;
13327;SDS011;6733;51.044;3.746;2022-11-23T03:50:49;13.80;;;3.47;;
13327;SDS011;6733;51.044;3.746;2022-11-23T03:53:16;12.60;;;4.20;;
13327;SDS011;6733;51.044;3.746;2022-11-23T03:55:44;15.80;;;3.57;;
13327;SDS011;6733;51.044;3.746;2022-11-23T03:58:11;20.97;;;4.10;;
13327;SDS011;6733;51.044;3.746;2022-11-23T04:00:37;17.63;;;3.70;;
13327;SDS011;6733;51.044;3.746;2022-11-23T04:03:03;12.60;;;3.60;;
13327;SDS011;6733;51.044;3.746;2022-11-23T04:05:29;12.50;;;4.53;;
13327;SDS011;6733;51.044;3.746;2022-11-23T04:07:55;13.57;;;3.73;;
13327;SDS011;6733;51.044;3.746;2022-11-23T04:10:22;13.33;;;3.67;;
13327;SDS011;6733;51.044;3.746;2022-11-23T04:12:51;10.10;;;3.47;;
13327;SDS011;6733;51.044;3.746;2022-11-23T04:15:17;10.93;;;3.47;;
13327;SDS011;6733;51.044;3.746;2022-11-23T04:17:44;11.13;;;3.30;;
13327;SDS011;6733;51.044;3.746;2022-11-23T04:20:10;13.97;;;4.03;;
13327;SDS011;6733;51.044;3.746;2022-11-23T04:22:37;11.30;;;3.27;;
13327;SDS011;6733;51.044;3.746;2022-11-23T04:25:03;14.63;;;4.00;;
13327;SDS011;6733;51.044;3.746;2022-11-23T04:27:30;10.17;;;3.20;;
13327;SDS011;6733;51.044;3.746;2022-11-23T04:29:56;8.13;;;3.40;;
13327;SDS011;6733;51.044;3.746;2022-11-23T04:32:22;10.27;;;3.67;;
13327;SDS011;6733;51.044;3.746;2022-11-23T04:34:48;13.03;;;4.43;;
13327;SDS011;6733;51.044;3.746;2022-11-23T04:37:14;11.50;;;3.80;;
13327;SDS011;6733;51.044;3.746;2022-11-23T04:39:40;14.10;;;3.80;;
13327;SDS011;6733;51.044;3.746;2022-11-23T04:42:07;16.43;;;4.10;;
13327;SDS011;6733;51.044;3.746;2022-11-23T04:44:35;12.10;;;4.13;;
13327;SDS011;6733;51.044;3.746;2022-11-23T04:47:02;14.37;;;3.97;;
13327;SDS011;6733;51.044;3.746;2022-11-23T04:49:28;12.47;;;3.93;;
13327;SDS011;6733;51.044;3.746;2022-11-23T04:51:54;13.83;;;4.73;;
13327;SDS011;6733;51.044;3.746;2022-11-23T04:54:20;16.53;;;4.10;;
13327;SDS011;6733;51.044;3.746;2022-11-23T04:56:46;12.63;;;4.10;;
13327;SDS011;6733;51.044;3.746;2022-11-23T04:59:12;8.20;;;3.43;;
13327;SDS011;6733;51.044;3.746;2022-11-23T05:01:38;11.83;;;3.80;;
13327;SDS011;6733;51.044;3.746;2022-11-23T05:04:04;10.73;;;3.67;;
13327;SDS011;6733;51.044;3.746;2022-11-23T05:06:30;18.37;;;4.67;;
13327;SDS011;6733;51.044;3.746;2022-11-23T05:08:57;14.60;;;3.67;;
13327;SDS011;6733;51.044;3.746;2022-11-23T05:11:23;13.57;;;3.43;;
13327;SDS011;6733;51.044;3.746;2022-11-23T05:13:49;11.40;;;4.37;;
13327;SDS011;6733;51.044;3.746;2022-11-23T05:16:15;11.30;;;3.40;;
13327;SDS011;6733;51.044;3.746;2022-11-23T05:18:41;18.17;;;4.03;;
13327;SDS011;6733;51.044;3.746;2022-11-23T05:21:07;13.73;;;4.10;;
13327;SDS011;6733;51.044;3.746;2022-11-23T05:23:33;9.43;;;3.70;;
13327;SDS011;6733;51.044;3.746;2022-11-23T05:25:59;13.07;;;3.57;;
13327;SDS011;6733;51.044;3.746;2022-11-23T05:28:25;11.50;;;3.50;;
13327;SDS011;6733;51.044;3.746;2022-11-23T05:30:51;9.37;;;3.30;;
13327;SDS011;6733;51.044;3.746;2022-11-23T05:33:18;14.30;;;3.77;;
13327;SDS011;6733;51.044;3.746;2022-11-23T05:35:44;9.83;;;3.40;;
13327;SDS011;6733;51.044;3.746;2022-11-23T05:38:10;12.07;;;4.17;;
13327;SDS011;6733;51.044;3.746;2022-11-23T05:40:36;12.17;;;3.90;;
13327;SDS011;6733;51.044;3.746;2022-11-23T05:43:03;14.63;;;4.00;;
13327;SDS011;6733;51.044;3.746;2022-11-23T05:45:29;14.97;;;5.40;;
13327;SDS011;6733;51.044;3.746;2022-11-23T05:47:56;20.53;;;5.27;;
13327;SDS011;6733;51.044;3.746;2022-11-23T05:50:24;14.70;;;4.30;;
13327;SDS011;6733;51.044;3.746;2022-11-23T05:52:51;16.70;;;4.47;;
13327;SDS011;6733;51.044;3.746;2022-11-23T05:55:17;11.43;;;3.90;;
13327;SDS011;6733;51.044;3.746;2022-11-23T05:57:43;13.87;;;4.50;;
13327;SDS011;6733;51.044;3.746;2022-11-23T06:00:09;13.53;;;3.70;;
13327;SDS011;6733;51.044;3.746;2022-11-23T06:02:36;16.97;;;3.73;;
13327;SDS011;6733;51.044;3.746;2022-11-23T06:05:02;13.40;;;3.80;;
13327;SDS011;6733;51.044;3.746;2022-11-23T06:07:31;11.00;;;3.93;;
13327;SDS011;6733;51.044;3.746;2022-11-23T06:09:57;8.87;;;3.67;;
13327;SDS011;6733;51.044;3.746;2022-11-23T06:12:24;16.67;;;4.73;;
13327;SDS011;6733;51.044;3.746;2022-11-23T06:14:50;13.00;;;4.43;;
13327;SDS011;6733;51.044;3.746;2022-11-23T06:17:16;9.30;;;3.80;;
13327;SDS011;6733;51.044;3.746;2022-11-23T06:19:42;15.27;;;4.27;;
13327;SDS011;6733;51.044;3.746;2022-11-23T06:22:08;11.37;;;5.00;;
13327;SDS011;6733;51.044;3.746;2022-11-23T06:24:34;13.57;;;3.87;;
13327;SDS011;6733;51.044;3.746;2022-11-23T06:27:00;16.73;;;4.47;;
13327;SDS011;6733;51.044;3.746;2022-11-23T06:29:26;15.13;;;3.60;;
13327;SDS011;6733;51.044;3.746;2022-11-23T06:31:53;15.73;;;4.37;;
13327;SDS011;6733;51.044;3.746;2022-11-23T06:34:19;17.20;;;5.33;;
13327;SDS011;6733;51.044;3.746;2022-11-23T06:36:46;13.93;;;4.43;;
13327;SDS011;6733;51.044;3.746;2022-11-23T06:39:12;11.13;;;3.80;;
13327;SDS011;6733;51.044;3.746;2022-11-23T06:41:38;12.27;;;4.43;;
13327;SDS011;6733;51.044;3.746;2022-11-23T06:44:04;15.47;;;4.67;;
13327;SDS011;6733;51.044;3.746;2022-11-23T06:46:30;17.63;;;4.37;;
13327;SDS011;6733;51.044;3.746;2022-11-23T06:48:57;13.77;;;4.43;;
13327;SDS011;6733;51.044;3.746;2022-11-23T06:51:24;15.27;;;3.93;;
13327;SDS011;6733;51.044;3.746;2022-11-23T06:53:50;13.20;;;4.10;;
13327;SDS011;6733;51.044;3.746;2022-11-23T06:56:16;15.47;;;4.20;;
13327;SDS011;6733;51.044;3.746;2022-11-23T06:58:42;11.53;;;4.23;;
13327;SDS011;6733;51.044;3.746;2022-11-23T07:01:08;16.90;;;4.97;;
13327;SDS011;6733;51.044;3.746;2022-11-23T07:03:35;10.43;;;4.07;;
13327;SDS011;6733;51.044;3.746;2022-11-23T07:06:05;15.47;;;4.10;;
13327;SDS011;6733;51.044;3.746;2022-11-23T07:08:32;14.13;;;4.77;;
13327;SDS011;6733;51.044;3.746;2022-11-23T07:10:59;16.37;;;4.37;;
13327;SDS011;6733;51.044;3.746;2022-11-23T07:13:30;16.20;;;4.17;;
13327;SDS011;6733;51.044;3.746;2022-11-23T07:15:56;16.07;;;4.10;;
13327;SDS011;6733;51.044;3.746;2022-11-23T07:18:24;10.97;;;3.83;;
13327;SDS011;6733;51.044;3.746;2022-11-23T07:20:50;16.13;;;4.30;;
13327;SDS011;6733;51.044;3.746;2022-11-23T07:23:16;15.43;;;4.23;;
13327;SDS011;6733;51.044;3.746;2022-11-23T07:25:42;10.70;;;3.90;;
13327;SDS011;6733;51.044;3.746;2022-11-23T07:28:09;11.27;;;4.83;;
13327;SDS011;6733;51.044;3.746;2022-11-23T07:30:36;16.17;;;4.87;;
13327;SDS011;6733;51.044;3.746;2022-11-23T07:33:04;12.80;;;3.83;;
13327;SDS011;6733;51.044;3.746;2022-11-23T07:35:33;10.60;;;3.60;;
13327;SDS011;6733;51.044;3.746;2022-11-23T07:38:00;15.77;;;4.73;;
13327;SDS011;6733;51.044;3.746;2022-11-23T07:40:27;17.23;;;5.33;;
13327;SDS011;6733;51.044;3.746;2022-11-23T07:43:00;15.00;;;4.30;;
13327;SDS011;6733;51.044;3.746;2022-11-23T07:45:28;12.73;;;4.40;;
13327;SDS011;6733;51.044;3.746;2022-11-23T07:48:01;14.20;;;5.27;;
13327;SDS011;6733;51.044;3.746;2022-11-23T07:50:30;17.13;;;5.53;;
13327;SDS011;6733;51.044;3.746;2022-11-23T07:52:56;12.83;;;4.20;;
13327;SDS011;6733;51.044;3.746;2022-11-23T07:55:23;14.97;;;4.83;;
13327;SDS011;6733;51.044;3.746;2022-11-23T07:57:52;12.83;;;4.60;;
13327;SDS011;6733;51.044;3.746;2022-11-23T08:00:22;15.07;;;4.80;;
13327;SDS011;6733;51.044;3.746;2022-11-23T08:02:50;19.83;;;5.17;;
13327;SDS011;6733;51.044;3.746;2022-11-23T08:05:16;16.97;;;4.47;;
13327;SDS011;6733;51.044;3.746;2022-11-23T08:07:43;14.30;;;4.97;;
13327;SDS011;6733;51.044;3.746;2022-11-23T08:10:10;10.07;;;4.67;;
13327;SDS011;6733;51.044;3.746;2022-11-23T08:12:37;10.10;;;4.47;;
13327;SDS011;6733;51.044;3.746;2022-11-23T08:15:04;17.53;;;4.60;;
13327;SDS011;6733;51.044;3.746;2022-11-23T08:17:31;14.13;;;4.77;;
13327;SDS011;6733;51.044;3.746;2022-11-23T08:19:57;10.80;;;5.00;;
13327;SDS011;6733;51.044;3.746;2022-11-23T08:22:23;22.70;;;5.27;;
13327;SDS011;6733;51.044;3.746;2022-11-23T08:24:51;11.67;;;4.23;;
13327;SDS011;6733;51.044;3.746;2022-11-23T08:27:18;17.37;;;6.83;;
13327;SDS011;6733;51.044;3.746;2022-11-23T08:29:44;12.20;;;4.33;;
13327;SDS011;6733;51.044;3.746;2022-11-23T08:32:10;12.37;;;4.10;;
13327;SDS011;6733;51.044;3.746;2022-11-23T08:34:36;13.83;;;4.93;;
13327;SDS011;6733;51.044;3.746;2022-11-23T08:37:02;14.90;;;5.77;;
13327;SDS011;6733;51.044;3.746;2022-11-23T08:39:29;15.63;;;4.87;;
13327;SDS011;6733;51.044;3.746;2022-11-23T08:41:55;16.17;;;4.57;;
13327;SDS011;6733;51.044;3.746;2022-11-23T08:44:21;13.57;;;4.50;;
13327;SDS011;6733;51.044;3.746;2022-11-23T08:46:47;13.93;;;4.23;;
13327;SDS011;6733;51.044;3.746;2022-11-23T08:49:13;16.00;;;4.73;;
13327;SDS011;6733;51.044;3.746;2022-11-23T08:51:39;15.10;;;5.20;;
13327;SDS011;6733;51.044;3.746;2022-11-23T08:54:05;12.30;;;4.33;;
13327;SDS011;6733;51.044;3.746;2022-11-23T08:56:31;13.20;;;4.07;;
13327;SDS011;6733;51.044;3.746;2022-11-23T08:58:58;8.80;;;3.90;;
13327;SDS011;6733;51.044;3.746;2022-11-23T09:01:24;10.03;;;4.20;;
13327;SDS011;6733;51.044;3.746;2022-11-23T09:03:50;20.27;;;4.50;;
13327;SDS011;6733;51.044;3.746;2022-11-23T09:06:16;16.83;;;4.43;;
13327;SDS011;6733;51.044;3.746;2022-11-23T09:08:43;17.23;;;4.97;;
13327;SDS011;6733;51.044;3.746;2022-11-23T09:11:09;15.30;;;4.53;;
13327;SDS011;6733;51.044;3.746;2022-11-23T09:13:38;22.60;;;4.87;;
13327;SDS011;6733;51.044;3.746;2022-11-23T09:16:05;17.27;;;5.27;;
13327;SDS011;6733;51.044;3.746;2022-11-23T09:18:31;13.43;;;4.30;;
13327;SDS011;6733;51.044;3.746;2022-11-23T09:21:04;14.17;;;4.87;;
13327;SDS011;6733;51.044;3.746;2022-11-23T09:23:30;12.33;;;4.67;;
13327;SDS011;6733;51.044;3.746;2022-11-23T09:25:58;15.63;;;5.37;;
13327;SDS011;6733;51.044;3.746;2022-11-23T09:28:27;11.73;;;4.30;;
13327;SDS011;6733;51.044;3.746;2022-11-23T09:30:54;12.50;;;4.30;;
13327;SDS011;6733;51.044;3.746;2022-11-23T09:33:22;18.63;;;4.10;;
13327;SDS011;6733;51.044;3.746;2022-11-23T09:35:58;15.73;;;4.77;;
13327;SDS011;6733;51.044;3.746;2022-11-23T09:38:26;10.63;;;4.57;;
13327;SDS011;6733;51.044;3.746;2022-11-23T09:41:04;15.47;;;4.10;;
13327;SDS011;6733;51.044;3.746;2022-11-23T09:46:21;10.80;;;4.40;;
13327;SDS011;6733;51.044;3.746;2022-11-23T09:49:00;10.93;;;4.50;;
13327;SDS011;6733;51.044;3.746;2022-11-23T09:51:38;17.60;;;4.37;;
13327;SDS011;6733;51.044;3.746;2022-11-23T09:56:55;10.57;;;4.50;;
13327;SDS011;6733;51.044;3.746;2022-11-23T10:01:58;11.30;;;5.47;;
13327;SDS011;6733;51.044;3.746;2022-11-23T10:04:25;13.70;;;4.83;;
13327;SDS011;6733;51.044;3.746;2022-11-23T10:06:59;13.17;;;4.73;;
13327;SDS011;6733;51.044;3.746;2022-11-23T10:09:44;16.17;;;5.43;;
13327;SDS011;6733;51.044;3.746;2022-11-23T10:15:10;7.93;;;4.00;;
13327;SDS011;6733;51.044;3.746;2022-11-23T10:22:45;9.00;;;4.50;;
13327;SDS011;6733;51.044;3.746;2022-11-23T10:25:17;11.00;;;4.43;;
13327;SDS011;6733;51.044;3.746;2022-11-23T10:27:45;11.50;;;4.30;;
13327;SDS011;6733;51.044;3.746;2022-11-23T10:30:16;10.67;;;3.90;;
13327;SDS011;6733;51.044;3.746;2022-11-23T10:35:32;10.77;;;4.27;;
13327;SDS011;6733;51.044;3.746;2022-11-23T10:38:04;10.07;;;4.27;;
13327;SDS011;6733;51.044;3.746;2022-11-23T10:40:40;7.90;;;3.30;;
13327;SDS011;6733;51.044;3.746;2022-11-23T10:43:13;6.93;;;3.30;;
13327;SDS011;6733;51.044;3.746;2022-11-23T10:45:43;11.53;;;3.70;;
13327;SDS011;6733;51.044;3.746;2022-11-23T10:48:09;14.77;;;4.17;;
13327;SDS011;6733;51.044;3.746;2022-11-23T10:50:36;6.60;;;3.07;;
13327;SDS011;6733;51.044;3.746;2022-11-23T10:58:22;9.40;;;3.70;;
13327;SDS011;6733;51.044;3.746;2022-11-23T11:01:02;8.93;;;4.10;;
13327;SDS011;6733;51.044;3.746;2022-11-23T11:03:38;5.80;;;3.37;;
13327;SDS011;6733;51.044;3.746;2022-11-23T11:06:04;7.90;;;3.87;;
13327;SDS011;6733;51.044;3.746;2022-11-23T11:08:36;10.20;;;3.67;;
13327;SDS011;6733;51.044;3.746;2022-11-23T11:11:23;9.13;;;4.00;;
13327;SDS011;6733;51.044;3.746;2022-11-23T11:14:16;6.80;;;3.33;;
13327;SDS011;6733;51.044;3.746;2022-11-23T11:16:56;11.57;;;3.20;;
13327;SDS011;6733;51.044;3.746;2022-11-23T11:21:53;10.37;;;3.43;;
13327;SDS011;6733;51.044;3.746;2022-11-23T11:24:20;6.67;;;2.93;;
13327;SDS011;6733;51.044;3.746;2022-11-23T11:27:01;9.03;;;3.27;;
13327;SDS011;6733;51.044;3.746;2022-11-23T11:29:49;12.27;;;3.13;;
13327;SDS011;6733;51.044;3.746;2022-11-23T11:35:46;13.07;;;3.23;;
13327;SDS011;6733;51.044;3.746;2022-11-23T11:37:49;6.53;;;2.70;;
13327;SDS011;6733;51.044;3.746;2022-11-23T11:43:02;7.63;;;3.03;;
13327;SDS011;6733;51.044;3.746;2022-11-23T11:45:39;7.83;;;3.17;;
13327;SDS011;6733;51.044;3.746;2022-11-23T11:51:21;7.43;;;3.37;;
13327;SDS011;6733;51.044;3.746;2022-11-23T11:56:49;12.23;;;4.33;;
13327;SDS011;6733;51.044;3.746;2022-11-23T11:59:28;10.57;;;3.83;;
13327;SDS011;6733;51.044;3.746;2022-11-23T12:02:14;11.77;;;3.80;;
13327;SDS011;6733;51.044;3.746;2022-11-23T12:09:59;9.80;;;3.43;;
13327;SDS011;6733;51.044;3.746;2022-11-23T12:12:45;8.73;;;3.93;;
13327;SDS011;6733;51.044;3.746;2022-11-23T12:15:15;8.67;;;3.43;;
13327;SDS011;6733;51.044;3.746;2022-11-23T12:21:02;12.63;;;3.80;;
13327;SDS011;6733;51.044;3.746;2022-11-23T12:26:18;13.33;;;3.97;;
13327;SDS011;6733;51.044;3.746;2022-11-23T12:31:50;9.87;;;3.53;;
13327;SDS011;6733;51.044;3.746;2022-11-23T12:34:34;7.73;;;3.27;;
13327;SDS011;6733;51.044;3.746;2022-11-23T12:37:33;10.43;;;3.30;;
13327;SDS011;6733;51.044;3.746;2022-11-23T12:40:10;8.50;;;3.30;;
13327;SDS011;6733;51.044;3.746;2022-11-23T12:42:45;9.97;;;2.97;;
13327;SDS011;6733;51.044;3.746;2022-11-23T12:53:02;7.80;;;3.50;;
13327;SDS011;6733;51.044;3.746;2022-11-23T12:58:42;7.43;;;2.90;;
13327;SDS011;6733;51.044;3.746;2022-11-23T13:15:02;5.63;;;2.63;;
13327;SDS011;6733;51.044;3.746;2022-11-23T13:17:47;5.33;;;2.83;;
13327;SDS011;6733;51.044;3.746;2022-11-23T13:20:48;6.23;;;3.00;;
13327;SDS011;6733;51.044;3.746;2022-11-23T13:23:38;5.77;;;2.60;;
13327;SDS011;6733;51.044;3.746;2022-11-23T13:26:26;4.77;;;2.60;;
13327;SDS011;6733;51.044;3.746;2022-11-23T13:28:58;6.07;;;3.07;;
13327;SDS011;6733;51.044;3.746;2022-11-23T13:31:27;5.73;;;2.80;;
13327;SDS011;6733;51.044;3.746;2022-11-23T13:33:59;5.20;;;2.77;;
13327;SDS011;6733;51.044;3.746;2022-11-23T13:38:53;7.70;;;2.63;;
13327;SDS011;6733;51.044;3.746;2022-11-23T13:46:37;5.63;;;2.77;;
13327;SDS011;6733;51.044;3.746;2022-11-23T13:49:17;4.30;;;2.50;;
13327;SDS011;6733;51.044;3.746;2022-11-23T13:57:18;6.13;;;3.20;;
13327;SDS011;6733;51.044;3.746;2022-11-23T13:59:44;6.63;;;3.03;;
13327;SDS011;6733;51.044;3.746;2022-11-23T14:04:38;4.30;;;2.50;;
13327;SDS011;6733;51.044;3.746;2022-11-23T14:07:09;6.10;;;3.50;;
13327;SDS011;6733;51.044;3.746;2022-11-23T14:15:14;4.63;;;2.80;;
13327;SDS011;6733;51.044;3.746;2022-11-23T14:25:53;4.40;;;2.90;;
13327;SDS011;6733;51.044;3.746;2022-11-23T14:36:34;7.20;;;3.20;;
13327;SDS011;6733;51.044;3.746;2022-11-23T14:39:37;4.00;;;2.77;;
13327;SDS011;6733;51.044;3.746;2022-11-23T14:42:25;5.30;;;3.27;;
13327;SDS011;6733;51.044;3.746;2022-11-23T14:44:53;4.73;;;3.40;;
13327;SDS011;6733;51.044;3.746;2022-11-23T14:47:24;5.20;;;3.13;;
13327;SDS011;6733;51.044;3.746;2022-11-23T14:49:52;9.63;;;2.90;;
13327;SDS011;6733;51.044;3.746;2022-11-23T14:52:19;4.70;;;2.63;;
13327;SDS011;6733;51.044;3.746;2022-11-23T14:54:52;5.97;;;3.50;;
13327;SDS011;6733;51.044;3.746;2022-11-23T14:57:20;7.90;;;3.23;;
13327;SDS011;6733;51.044;3.746;2022-11-23T14:59:53;6.67;;;3.60;;
13327;SDS011;6733;51.044;3.746;2022-11-23T15:04:51;6.40;;;3.43;;
13327;SDS011;6733;51.044;3.746;2022-11-23T15:07:40;5.47;;;3.20;;
13327;SDS011;6733;51.044;3.746;2022-11-23T15:12:49;7.97;;;3.70;;
13327;SDS011;6733;51.044;3.746;2022-11-23T15:15:16;6.87;;;3.33;;
13327;SDS011;6733;51.044;3.746;2022-11-23T15:17:54;6.43;;;3.63;;
13327;SDS011;6733;51.044;3.746;2022-11-23T15:20:27;8.37;;;3.67;;
13327;SDS011;6733;51.044;3.746;2022-11-23T15:22:57;4.50;;;3.20;;
13327;SDS011;6733;51.044;3.746;2022-11-23T15:25:27;6.43;;;3.60;;
13327;SDS011;6733;51.044;3.746;2022-11-23T15:27:54;4.73;;;3.10;;
13327;SDS011;6733;51.044;3.746;2022-11-23T15:30:27;4.90;;;3.37;;
13327;SDS011;6733;51.044;3.746;2022-11-23T15:32:55;5.87;;;3.20;;
13327;SDS011;6733;51.044;3.746;2022-11-23T15:35:27;7.90;;;3.47;;
13327;SDS011;6733;51.044;3.746;2022-11-23T15:37:59;5.17;;;3.23;;
13327;SDS011;6733;51.044;3.746;2022-11-23T15:40:28;7.33;;;3.00;;
13327;SDS011;6733;51.044;3.746;2022-11-23T15:42:57;8.90;;;3.33;;
13327;SDS011;6733;51.044;3.746;2022-11-23T15:48:12;6.07;;;2.93;;
13327;SDS011;6733;51.044;3.746;2022-11-23T15:50:45;9.20;;;3.50;;
13327;SDS011;6733;51.044;3.746;2022-11-23T15:53:13;6.93;;;3.73;;
13327;SDS011;6733;51.044;3.746;2022-11-23T15:55:40;6.10;;;3.20;;
13327;SDS011;6733;51.044;3.746;2022-11-23T15:58:07;8.23;;;3.87;;
13327;SDS011;6733;51.044;3.746;2022-11-23T16:00:34;6.23;;;3.60;;
13327;SDS011;6733;51.044;3.746;2022-11-23T16:08:38;8.47;;;3.90;;
13327;SDS011;6733;51.044;3.746;2022-11-23T16:11:27;7.17;;;3.90;;
13327;SDS011;6733;51.044;3.746;2022-11-23T16:14:08;10.10;;;4.60;;
13327;SDS011;6733;51.044;3.746;2022-11-23T16:19:48;9.27;;;4.30;;
13327;SDS011;6733;51.044;3.746;2022-11-23T16:22:20;8.30;;;4.23;;
13327;SDS011;6733;51.044;3.746;2022-11-23T16:25:28;7.70;;;4.80;;
13327;SDS011;6733;51.044;3.746;2022-11-23T16:27:55;7.50;;;3.63;;
13327;SDS011;6733;51.044;3.746;2022-11-23T16:30:48;11.43;;;4.57;;
13327;SDS011;6733;51.044;3.746;2022-11-23T16:33:14;10.63;;;4.10;;
13327;SDS011;6733;51.044;3.746;2022-11-23T16:35:42;13.73;;;4.80;;
13327;SDS011;6733;51.044;3.746;2022-11-23T16:38:09;9.53;;;4.77;;
13327;SDS011;6733;51.044;3.746;2022-11-23T16:40:37;12.67;;;5.03;;
13327;SDS011;6733;51.044;3.746;2022-11-23T16:43:04;15.40;;;5.00;;
13327;SDS011;6733;51.044;3.746;2022-11-23T16:45:30;9.60;;;4.70;;
13327;SDS011;6733;51.044;3.746;2022-11-23T16:47:58;10.47;;;4.37;;
13327;SDS011;6733;51.044;3.746;2022-11-23T16:50:26;17.60;;;5.37;;
13327;SDS011;6733;51.044;3.746;2022-11-23T16:53:00;10.47;;;4.97;;
13327;SDS011;6733;51.044;3.746;2022-11-23T16:55:37;14.13;;;4.83;;
13327;SDS011;6733;51.044;3.746;2022-11-23T16:58:03;9.97;;;5.07;;
13327;SDS011;6733;51.044;3.746;2022-11-23T17:00:30;9.77;;;4.47;;
13327;SDS011;6733;51.044;3.746;2022-11-23T17:02:58;9.97;;;5.23;;
13327;SDS011;6733;51.044;3.746;2022-11-23T17:05:25;10.80;;;4.57;;
13327;SDS011;6733;51.044;3.746;2022-11-23T17:07:51;16.90;;;5.47;;
13327;SDS011;6733;51.044;3.746;2022-11-23T17:10:17;15.20;;;6.10;;
13327;SDS011;6733;51.044;3.746;2022-11-23T17:12:48;11.57;;;5.23;;
13327;SDS011;6733;51.044;3.746;2022-11-23T17:15:17;17.93;;;7.17;;
13327;SDS011;6733;51.044;3.746;2022-11-23T17:17:45;16.30;;;5.40;;
13327;SDS011;6733;51.044;3.746;2022-11-23T17:20:12;13.10;;;5.67;;
13327;SDS011;6733;51.044;3.746;2022-11-23T17:22:38;14.53;;;5.30;;